Rejestracja

Wszystkie dane podawane są w czasie UTC za wyjątkiem miejsc gdzie jest jednoznacznie podane, że jest inaczej. Dane podawane w serwisie mają charakter informacyjny!!!
Informacje w sprawie dostępu do serwisu pod numerem tel. +48 261-828-138

Aktualna Pogoda
 
Pogoda w Polsce
-2°C Szczecin -3°C Suwałki -1°C Warszawa -2°C Poznan
-1°C Opole -1°C Kraków -2°C Rzeszów
Więcej miast w Polsce

Pogoda w Europie
-2°C Berlin 2°C Paryz 1°C Bruksela -3°C Oslo
-2°C Praga 0°C Zagrzeb
Więcej miast w Europie

Metary wojskowe test
METAR EPBC 161000Z 25004KT 1000 BR OVC001 M01/M02 Q1020=
SPECI EPCE 161043Z 30003KT 9999 OVC006 M01/M02 Q1021 RMK M011 094 8/8=
METAR EPDA 161030Z 03004KT 360V070 9999 BKN029 01/M04 Q1023 RMK 012 068 7/7=
METAR EPDE 161030Z 18004KT 4000 -SN BR SCT008 OVC011 M03/M04 Q1021 RMK M028 088 8/4=
METAR EPIR 161030Z 28008KT CAVOK M01/M04 Q1021 RMK M012 083 5/4=
METAR EPKS 161030Z 34004KT CAVOK M03/M06 Q1022 RMK M035 085 2/2=
METAR EPLK 161030Z 24004KT 3500 -SN BR BKN006 OVC010 00/M00 Q1020 RMK 000 098 8/6=
METAR EPLY 161030Z 32002KT 1500 -SN BR BKN005 OVC009 M00/M01 Q1020 RMK M002 093 8/5=
METAR EPMB 161030Z 34004KT 0600 R25/0600 FZFG OVC002 M01/M02 Q1020 RMK M012 095 8/8=
METAR EPMI 161030Z 33004KT 9999 SCT030 M04/M05 Q1022 RMK M038 095 4/4=
METAR EPMM 161030Z 22002KT 4000 BR BKN005 OVC010 M01/M02 Q1020 RMK M006 088 8/7=
METAR EPNA 161000Z 27002KT 9999 SCT030 M05/M07 Q1022 RMK M047 086 3/3=
METAR EPOK 161030Z 31004KT 9999 BKN046 M00/M00 Q1021 RMK M001 100 5/5=
METAR EPPR 161030Z 35002KT 8000 SCT011 BKN017 01/M00 Q1020 RMK 005 095 7/3=
METAR EPPW 161030Z 33004KT 9999 SCT040 BKN100 M01/M04 Q1021 RMK M012 084 5/3=
METAR EPSN 161030Z VRB02KT 9999 SCT030 M04/M05 Q1022 RMK M036 088 4/4=
METAR EPTM 161030Z 25004KT 1500 BR OVC005 M01/M01 Q1020 RMK M006 094 8/8=


 
Informacje ogólne
Pogoda
Warszawa
Temperatura: -0.5°C
Wiatr: 1.0 m/s
Ciśnienie: 1021.2 hPa
Zjawiska: Brak
Temp. max: -0.5 °C
Temp. min: -2.1 °C


Dane astronomiczne
Warszawa:
Dzien: 08:17 h
Noc: 15:43 h


Using HW VSP powered by HW group.

Prawa autorskie©2007 SSH SZ RP. Wszelkie prawa zastrzeżone.